Time;durP1;ratioP1;P1;durP2;ratioP2;P2;SDS_P1;SDS_P2;PMS_P1;PMS_P2;Temp;Humidity;BMP_temperature;BMP_pressure;BME280_temperature;BME280_humidity;BME280_pressure;Samples;Min_cycle;Max_cycle;Signal;HPM_P1;HPM_P2
2021/12/23 00:01:18;;;;;;;43.20;28.83;;;2.80;99.90;;;3.03;76.19;101505.16;4977026;28;20137;-66
2021/12/23 00:03:47;;;;;;;45.10;29.37;;;3.00;99.90;;;3.20;75.60;101485.75;4994162;28;20042;-65
2021/12/23 00:06:16;;;;;;;45.27;31.00;;;3.10;99.90;;;3.27;75.07;101485.13;4976840;28;20140;-66
2021/12/23 00:08:45;;;;;;;44.03;30.17;;;3.20;99.90;;;3.36;74.57;101472.38;4994391;28;20101;-66
2021/12/23 00:11:13;;;;;;;47.07;31.07;;;3.30;99.90;;;3.27;74.17;101461.63;4994664;28;20081;-65
2021/12/23 00:13:50;;;;;;;44.40;30.20;;;3.30;99.90;;;3.31;74.31;101466.13;4994001;28;20077;-65
2021/12/23 00:16:29;;;;;;;50.10;31.43;;;3.30;99.90;;;3.14;74.55;101459.38;4994186;28;20042;-67
2021/12/23 00:19:04;;;;;;;51.90;32.50;;;3.20;99.90;;;3.10;74.90;101461.00;4994434;28;20053;-67
2021/12/23 00:24:19;;;;;;;48.00;30.67;;;3.20;99.90;;;3.26;74.82;101441.53;4993904;28;20081;-67
2021/12/23 00:26:47;;;;;;;47.60;31.93;;;3.20;99.90;;;3.27;74.86;101443.31;4993710;28;20479;-67
2021/12/23 00:29:17;;;;;;;48.67;32.13;;;3.30;99.90;;;3.19;74.96;101436.94;4994053;28;20042;-67
2021/12/23 00:31:45;;;;;;;53.05;35.70;;;3.20;99.90;;;2.91;75.33;101436.78;4994184;28;20130;-67
2021/12/23 00:34:14;;;;;;;55.87;34.53;;;3.00;99.90;;;2.97;75.35;101423.94;4993907;28;20126;-67
2021/12/23 00:36:45;;;;;;;56.43;35.67;;;3.00;99.90;;;2.81;75.79;101406.00;4976220;28;20503;-68
2021/12/23 00:39:15;;;;;;;59.47;37.27;;;2.90;99.90;;;2.78;75.67;101398.94;4993458;28;20046;-67
2021/12/23 00:41:44;;;;;;;57.28;36.97;;;2.90;99.90;;;2.78;75.91;101379.75;4992574;28;20074;-67
2021/12/23 00:44:14;;;;;;;60.80;36.63;;;2.80;99.90;;;2.85;75.96;101379.13;4993549;28;20440;-67
2021/12/23 00:46:44;;;;;;;61.70;38.10;;;2.90;99.90;;;2.76;76.33;101361.41;4993708;28;20148;-67
2021/12/23 00:49:12;;;;;;;60.17;36.97;;;2.80;99.90;;;2.90;76.64;101373.25;4993287;28;20038;-67
2021/12/23 00:51:41;;;;;;;58.67;37.47;;;2.90;99.90;;;3.08;76.35;101405.19;4993355;28;20086;-67
2021/12/23 00:54:09;;;;;;;59.00;36.57;;;3.00;99.90;;;3.07;76.13;101386.84;4993229;28;20134;-68
2021/12/23 00:56:38;;;;;;;60.23;37.67;;;3.10;99.90;;;3.17;75.68;101379.41;4993410;28;20042;-67
2021/12/23 00:59:09;;;;;;;57.40;38.23;;;3.10;99.90;;;3.24;75.31;101391.81;4975567;28;20057;-67
2021/12/23 01:01:38;;;;;;;62.63;36.97;;;3.20;99.90;;;3.24;75.47;101388.31;4993162;28;20173;-67
2021/12/23 01:04:08;;;;;;;63.30;39.70;;;3.10;99.90;;;3.04;75.52;101368.47;4992997;28;20047;-67
2021/12/23 01:06:36;;;;;;;60.22;38.95;;;3.10;99.90;;;3.00;76.05;101387.50;4975700;28;20479;-68
2021/12/23 01:09:05;;;;;;;64.00;40.27;;;3.00;99.90;;;2.77;76.37;101378.00;4992881;28;20092;-67
2021/12/23 01:11:34;;;;;;;62.17;38.90;;;2.90;99.90;;;2.84;76.57;101375.63;4992866;28;20165;-67
2021/12/23 01:14:25;;;;;;;61.20;38.73;;;2.80;99.90;;;2.91;76.50;101381.94;4992851;28;20129;-67
2021/12/23 01:17:12;;;;;;;65.53;38.33;;;2.90;99.90;;;2.87;76.60;101375.72;4993139;28;20105;-67
2021/12/23 01:19:49;;;;;;;62.57;37.93;;;2.80;99.90;;;2.86;76.62;101360.00;4993163;28;20117;-67
2021/12/23 01:22:18;;;;;;;59.40;37.20;;;2.90;99.90;;;2.66;76.47;101321.03;4993366;28;20093;-67
2021/12/23 01:24:47;;;;;;;61.30;38.67;;;2.90;99.90;;;2.78;76.76;101335.34;4992881;28;20396;-67
2021/12/23 01:27:16;;;;;;;61.23;38.87;;;2.90;99.90;;;2.94;76.79;101353.31;4992766;28;20124;-67
2021/12/23 01:29:45;;;;;;;61.90;39.63;;;2.90;99.90;;;2.99;76.58;101360.47;4992965;28;20466;-67
2021/12/23 01:32:13;;;;;;;57.70;37.43;;;2.90;99.90;;;3.08;76.62;101373.84;4992670;28;20133;-67
2021/12/23 01:34:43;;;;;;;61.97;39.77;;;3.00;99.90;;;3.06;76.77;101358.97;4975450;28;20054;-69
2021/12/23 01:37:12;;;;;;;64.07;40.70;;;3.00;99.90;;;3.15;76.27;101361.88;4992918;28;20145;-67
2021/12/23 01:39:40;;;;;;;62.90;39.87;;;3.10;99.90;;;3.09;76.58;101359.06;4992820;28;20078;-67
2021/12/23 01:42:08;;;;;;;64.13;39.40;;;3.10;99.90;;;3.16;76.65;101361.03;4975451;28;20053;-68
2021/12/23 01:44:37;;;;;;;62.97;41.00;;;3.10;99.90;;;3.23;76.77;101344.72;4992591;28;20448;-67
2021/12/23 01:47:06;;;;;;;62.83;40.53;;;3.20;99.90;;;3.15;76.75;101335.75;4975272;28;20042;-67
2021/12/23 01:49:34;;;;;;;64.33;40.60;;;3.20;99.90;;;3.20;76.73;101337.66;4975342;28;20054;-67
2021/12/23 01:52:05;;;;;;;72.90;44.80;;;3.20;99.90;;;3.28;76.84;101346.66;4992825;28;20070;-67
2021/12/23 01:54:34;;;;;;;76.87;48.20;;;3.20;99.90;;;3.30;76.86;101337.13;4993170;28;20053;-68
2021/12/23 01:57:02;;;;;;;84.80;52.97;;;3.20;99.90;;;3.23;76.83;101329.06;4992739;28;20046;-66
2021/12/23 01:59:33;;;;;;;99.30;58.57;;;3.20;99.90;;;3.20;77.08;101315.88;4992562;28;20043;-66
2021/12/23 02:02:01;;;;;;;;;;;3.10;99.90;;;3.15;77.29;101313.13;4993305;28;20042;-66
2021/12/23 02:04:30;;;;;;;90.33;53.33;;;3.10;99.90;;;3.14;77.47;101302.59;4975188;28;19921;-66
2021/12/23 02:07:01;;;;;;;87.50;52.57;;;3.10;99.90;;;3.05;77.69;101290.16;4992807;28;20070;-66
2021/12/23 02:09:31;;;;;;;95.33;55.13;;;3.00;99.90;;;3.07;77.91;101280.63;4992647;28;20039;-67
2021/12/23 02:11:59;;;;;;;87.45;50.63;;;3.00;99.90;;;3.07;78.04;101292.78;4992724;28;20081;-67
2021/12/23 02:14:28;;;;;;;94.77;54.67;;;3.10;99.90;;;2.71;79.26;101290.75;4974711;28;20039;-66
2021/12/23 02:16:56;;;;;;;103.87;57.57;;;2.80;99.90;;;2.70;79.35;101283.75;4975036;28;20046;-66
2021/12/23 02:19:25;;;;;;;106.57;59.30;;;2.70;99.90;;;2.88;79.39;101274.75;4991192;28;20042;-68
2021/12/23 02:21:55;;;;;;;109.53;59.90;;;2.80;99.90;;;1.99;79.66;101128.19;4993839;28;20042;-66
2021/12/23 02:24:24;;;;;;;109.30;60.28;;;2.80;99.90;;;2.64;79.84;101273.09;4996497;28;20074;-66
2021/12/23 02:26:52;;;;;;;119.10;62.37;;;2.70;99.90;;;2.68;80.02;101267.16;4995904;28;20392;-66
2021/12/23 02:29:21;;;;;;;118.93;64.73;;;2.70;99.90;;;2.74;79.88;101277.81;4996454;28;20043;-66
2021/12/23 02:31:52;;;;;;;122.83;65.63;;;2.80;99.90;;;2.63;80.14;101267.84;4996107;28;20133;-66
2021/12/23 02:34:22;;;;;;;133.27;68.33;;;2.70;99.90;;;2.41;79.99;101271.44;4996473;28;20046;-66
2021/12/23 02:36:51;;;;;;;127.28;66.05;;;2.60;99.90;;;2.55;80.52;101274.53;4996087;28;20100;-66
2021/12/23 02:39:23;;;;;;;127.10;67.83;;;2.60;99.90;;;2.60;80.21;101278.16;4995490;28;20105;-65
2021/12/23 02:41:53;;;;;;;132.33;67.80;;;2.50;99.90;;;1.89;80.48;101149.56;4995593;28;20081;-66
2021/12/23 02:44:22;;;;;;;125.50;66.78;;;2.60;99.90;;;2.32;81.38;101265.03;4995688;28;20046;-66
2021/12/23 02:46:50;;;;;;;133.13;68.90;;;2.40;99.90;;;2.38;81.42;101245.22;4978104;28;20045;-66
2021/12/23 02:49:20;;;;;;;133.83;68.57;;;2.40;99.90;;;2.38;81.52;101250.44;4995845;28;20101;-66
2021/12/23 02:51:49;;;;;;;138.57;71.37;;;2.40;99.90;;;2.27;81.92;101238.75;4995567;28;20069;-66
2021/12/23 02:54:18;;;;;;;128.80;66.23;;;2.30;99.90;;;2.23;82.20;101254.22;4978196;28;20051;-66
2021/12/23 02:56:47;;;;;;;131.33;68.27;;;2.30;99.90;;;2.33;82.12;101246.78;4995422;28;20054;-66
2021/12/23 02:59:16;;;;;;;128.57;65.93;;;2.30;99.90;;;2.25;82.07;101237.81;4995611;28;20176;-66
2021/12/23 03:01:44;;;;;;;131.60;69.07;;;2.30;99.90;;;2.37;82.06;101243.47;4995513;28;20459;-66
2021/12/23 03:04:13;;;;;;;137.97;69.70;;;2.40;99.90;;;2.43;81.87;101255.81;4995268;28;20054;-66
2021/12/23 03:06:42;;;;;;;124.53;66.97;;;2.40;99.90;;;2.48;81.41;101244.69;4995517;28;20089;-66
2021/12/23 03:09:10;;;;;;;131.70;67.90;;;2.40;99.90;;;2.57;81.12;101242.41;4977931;28;20177;-66
2021/12/23 03:11:40;;;;;;;125.80;66.30;;;2.50;99.90;;;2.55;81.08;101215.38;4995524;28;20039;-66
2021/12/23 03:14:11;;;;;;;135.07;69.20;;;2.50;99.90;;;2.49;80.85;101211.66;4995685;28;20120;-66
2021/12/23 03:16:39;;;;;;;131.53;70.43;;;2.50;99.90;;;2.46;81.06;101212.44;4995435;28;20093;-66
2021/12/23 03:19:08;;;;;;;135.50;69.23;;;2.50;99.90;;;2.48;81.05;101194.22;4995065;28;20604;-65
2021/12/23 03:21:37;;;;;;;134.27;69.40;;;2.40;99.90;;;2.45;81.28;101202.84;4995121;28;20153;-66
2021/12/23 03:24:06;;;;;;;135.17;68.50;;;2.50;99.90;;;2.48;81.47;101212.47;4995019;28;20463;-66
2021/12/23 03:26:35;;;;;;;133.23;68.57;;;2.50;99.90;;;2.55;81.20;101206.66;4995164;28;20141;-66
2021/12/23 03:29:03;;;;;;;127.10;66.33;;;2.50;99.90;;;1.83;81.17;101083.34;4978100;28;20137;-66
2021/12/23 03:31:34;;;;;;;132.30;65.77;;;2.50;99.90;;;2.40;81.58;101195.72;4995030;28;20042;-65
2021/12/23 03:34:03;;;;;;;124.95;65.35;;;2.50;99.90;;;2.47;81.78;101182.91;4993893;28;20054;-66
2021/12/23 03:36:31;;;;;;;123.90;64.53;;;2.40;99.90;;;2.49;81.61;101186.47;4995385;28;20125;-66
2021/12/23 03:39:00;;;;;;;120.80;60.80;;;2.50;99.90;;;2.42;81.49;101170.53;4994572;28;20047;-67
2021/12/23 03:41:28;;;;;;;122.17;62.37;;;2.40;99.90;;;2.50;81.82;101166.44;4994859;28;20439;-66
2021/12/23 03:43:57;;;;;;;118.77;61.10;;;2.50;99.90;;;2.49;81.38;101162.97;4995293;28;20104;-66
2021/12/23 03:46:25;;;;;;;120.73;61.53;;;2.50;99.90;;;2.57;81.27;101174.53;4994888;28;20129;-67
2021/12/23 03:48:55;;;;;;;121.97;62.57;;;2.50;99.90;;;2.60;81.42;101174.63;4994852;28;20050;-66
2021/12/23 03:51:23;;;;;;;118.78;60.95;;;2.60;99.90;;;2.67;81.12;101189.63;4994734;28;20050;-66
2021/12/23 03:53:52;;;;;;;116.67;60.00;;;2.60;99.90;;;2.81;81.05;101210.13;4994541;28;20125;-66
2021/12/23 03:56:20;;;;;;;119.20;59.93;;;2.70;99.90;;;2.95;80.56;101193.13;4994408;28;20039;-67
2021/12/23 03:58:49;;;;;;;112.70;60.00;;;2.80;99.90;;;3.03;80.05;101189.03;4994330;28;20043;-66
2021/12/23 04:01:18;;;;;;;116.47;62.93;;;2.90;99.90;;;3.11;79.78;101195.38;4976966;28;20109;-66
2021/12/23 04:03:48;;;;;;;123.07;61.83;;;3.00;99.90;;;3.13;79.58;101199.81;4994739;28;20065;-67
2021/12/23 04:06:18;;;;;;;119.97;61.63;;;3.00;99.90;;;3.15;79.47;101190.31;4994173;28;20500;-66
2021/12/23 04:08:47;;;;;;;117.30;59.60;;;3.10;99.90;;;3.23;79.15;101169.63;4976884;28;20046;-66
2021/12/23 04:11:16;;;;;;;114.80;59.70;;;3.10;99.90;;;3.24;78.79;101177.50;4993986;28;20050;-66
2021/12/23 04:13:45;;;;;;;117.03;58.63;;;3.10;99.90;;;3.23;78.86;101174.84;4994014;28;20145;-66
2021/12/23 04:16:13;;;;;;;115.43;58.53;;;3.10;99.90;;;3.29;78.83;101185.50;4994448;28;20129;-66
2021/12/23 04:18:45;;;;;;;112.80;57.97;;;3.20;99.90;;;3.29;78.89;101177.66;4994307;28;20057;-66
2021/12/23 04:21:14;;;;;;;113.20;58.50;;;3.20;99.90;;;3.28;79.06;101173.25;4993897;28;20042;-66
2021/12/23 04:23:44;;;;;;;113.70;59.57;;;3.10;99.90;;;3.33;79.05;101171.69;4993849;28;20054;-66
2021/12/23 04:26:12;;;;;;;112.80;56.10;;;3.20;99.90;;;3.24;79.02;101167.03;4993736;28;20042;-66
2021/12/23 04:28:47;;;;;;;108.57;55.90;;;3.10;99.90;;;3.31;79.08;101157.69;4993565;28;20046;-66
2021/12/23 04:31:19;;;;;;;109.97;56.23;;;3.10;99.90;;;3.30;78.72;101154.16;4993792;28;20109;-66
2021/12/23 04:33:50;;;;;;;116.63;57.63;;;3.20;99.90;;;3.26;79.02;101159.25;4994018;28;20062;-66
2021/12/23 04:36:19;;;;;;;110.43;57.57;;;3.20;99.90;;;3.24;78.86;101150.47;4976454;28;20105;-66
2021/12/23 04:38:49;;;;;;;108.00;56.40;;;3.20;99.90;;;3.31;79.02;101152.44;4993166;28;20551;-64
2021/12/23 04:41:18;;;;;;;113.03;56.30;;;3.20;99.90;;;3.29;78.98;101154.13;4993662;28;20101;-66
2021/12/23 04:43:46;;;;;;;112.03;57.53;;;3.30;99.90;;;3.42;78.93;101143.19;4993359;28;20046;-66
2021/12/23 04:46:14;;;;;;;115.73;57.90;;;3.30;99.90;;;3.27;78.96;101145.34;4993341;28;20598;-66
2021/12/23 04:48:45;;;;;;;111.23;56.87;;;3.30;99.90;;;3.17;79.17;101138.09;4993380;28;20074;-66
2021/12/23 04:51:14;;;;;;;116.00;56.78;;;3.20;99.90;;;3.08;79.29;101138.69;4993559;28;20128;-66
2021/12/23 04:53:43;;;;;;;106.10;56.33;;;3.10;99.90;;;3.14;79.70;101137.97;4993423;28;20551;-66
2021/12/23 04:56:13;;;;;;;104.17;54.93;;;3.10;99.90;;;3.19;79.90;101139.91;4976111;28;20104;-66
2021/12/23 04:58:43;;;;;;;;;;;3.10;99.90;;;3.17;79.74;101143.31;4994392;28;20101;-66
2021/12/23 05:01:19;;;;;;;102.57;53.57;;;3.20;99.90;;;3.20;79.41;101146.88;4993439;28;20372;-67
2021/12/23 05:03:49;;;;;;;103.07;54.03;;;3.20;99.90;;;3.24;79.37;101134.78;4993500;28;20049;-66
2021/12/23 05:06:17;;;;;;;104.03;52.67;;;3.20;99.90;;;3.17;79.64;101128.53;4993299;28;20112;-67
2021/12/23 05:08:46;;;;;;;100.93;53.07;;;3.20;99.90;;;3.21;79.57;101129.50;4993181;28;20424;-66
2021/12/23 05:11:16;;;;;;;91.33;49.30;;;3.20;99.90;;;3.18;79.76;101124.16;4993348;28;20523;-66
2021/12/23 05:13:47;;;;;;;;;;;3.10;99.90;;;3.24;79.86;101124.34;4976164;28;20105;-66
2021/12/23 05:16:16;;;;;;;100.65;52.17;;;3.10;99.90;;;3.22;79.73;101112.94;4993254;28;20330;-66
2021/12/23 05:18:44;;;;;;;95.80;50.47;;;3.20;99.90;;;3.28;80.08;101110.53;4993215;28;20413;-64
2021/12/23 05:21:13;;;;;;;95.87;50.80;;;3.20;99.90;;;3.30;79.87;101114.06;4993461;28;20145;-68
2021/12/23 05:23:42;;;;;;;97.97;50.33;;;3.20;99.90;;;3.25;80.27;101111.31;4992875;28;20038;-68
2021/12/23 05:26:10;;;;;;;96.57;49.80;;;3.20;99.90;;;3.31;80.09;101089.72;4993140;28;20046;-66
2021/12/23 05:28:40;;;;;;;93.33;48.63;;;3.20;99.90;;;3.37;79.90;101089.84;4992650;28;20125;-69
2021/12/23 05:31:09;;;;;;;93.75;49.10;;;3.30;99.90;;;3.41;80.13;101095.22;4992940;28;20049;-68
2021/12/23 05:33:38;;;;;;;93.57;50.53;;;3.30;99.90;;;3.00;80.36;101055.72;4993161;28;20050;-71
2021/12/23 05:36:07;;;;;;;95.87;48.80;;;3.20;99.90;;;3.18;80.47;101072.78;4992481;28;20488;-71
2021/12/23 05:38:36;;;;;;;91.53;46.77;;;3.20;99.90;;;2.64;80.65;100959.81;4992702;28;20492;-71
2021/12/23 05:41:04;;;;;;;95.77;50.57;;;3.30;99.90;;;3.18;80.63;101079.72;4991095;28;20055;-71
2021/12/23 05:43:33;;;;;;;93.23;48.77;;;3.10;99.90;;;3.29;80.87;101078.34;4992889;28;20125;-71
2021/12/23 05:46:02;;;;;;;90.87;46.73;;;3.20;99.90;;;3.44;80.46;101092.72;4992650;28;20050;-72
2021/12/23 05:48:31;;;;;;;91.70;49.53;;;3.30;99.90;;;3.51;80.33;101089.41;4992831;28;20077;-72
2021/12/23 05:50:59;;;;;;;89.23;47.43;;;3.40;99.90;;;3.54;80.23;101075.53;4992538;28;20505;-72
2021/12/23 05:53:28;;;;;;;91.07;47.07;;;3.50;99.90;;;3.42;79.84;101038.59;4975258;28;20054;-71
2021/12/23 05:55:56;;;;;;;86.87;46.83;;;3.50;99.90;;;3.16;80.43;101021.31;4992543;28;20129;-71
2021/12/23 05:58:25;;;;;;;97.87;50.60;;;3.40;99.90;;;3.35;80.55;101049.72;4997067;28;20459;-72
2021/12/23 06:00:54;;;;;;;91.10;49.33;;;3.40;99.90;;;3.24;80.95;101027.63;4996902;28;20096;-71
2021/12/23 06:03:24;;;;;;;91.07;47.43;;;3.30;99.90;;;3.50;80.54;101044.94;4979265;28;20117;-72
2021/12/23 06:05:53;;;;;;;88.45;48.10;;;3.40;99.90;;;3.48;80.83;101051.84;4996677;28;20046;-71
2021/12/23 06:08:21;;;;;;;89.60;47.97;;;3.40;99.90;;;3.52;80.61;101049.34;4996407;28;20117;-71
2021/12/23 06:10:50;;;;;;;89.87;48.13;;;3.50;99.90;;;3.67;80.45;101054.09;4996844;28;20050;-71
2021/12/23 06:13:18;;;;;;;90.97;48.00;;;3.50;99.90;;;3.79;80.00;101072.72;4996976;28;20104;-71
2021/12/23 06:15:47;;;;;;;87.43;45.13;;;3.60;99.90;;;3.88;79.59;101064.22;4979222;28;20062;-71
2021/12/23 06:18:15;;;;;;;85.87;45.13;;;3.70;99.90;;;3.98;79.00;101066.22;4996290;28;20050;-71
2021/12/23 06:20:45;;;;;;;81.80;46.27;;;3.80;99.90;;;4.05;78.81;101058.56;4996464;28;20057;-71
2021/12/23 06:23:14;;;;;;;81.15;46.00;;;4.00;99.90;;;4.10;78.76;101056.97;4996153;28;20046;-72
2021/12/23 06:25:42;;;;;;;86.30;46.40;;;4.00;99.90;;;4.13;78.37;101061.34;4978780;28;20054;-72
2021/12/23 06:28:13;;;;;;;81.03;44.63;;;4.10;99.90;;;4.19;78.07;101061.50;4994910;28;20548;-72
2021/12/23 06:30:41;;;;;;;86.23;45.60;;;4.10;99.90;;;4.20;78.06;101058.91;4996144;28;20048;-71
2021/12/23 06:33:11;;;;;;;85.57;46.80;;;4.10;99.90;;;4.19;78.04;101051.03;4996123;28;20046;-71
2021/12/23 06:35:40;;;;;;;86.57;47.27;;;4.10;99.90;;;4.15;78.38;101044.84;4996125;28;20101;-72
2021/12/23 06:38:12;;;;;;;83.57;45.83;;;4.00;99.90;;;4.17;78.16;101037.03;4996112;28;20050;-72
2021/12/23 06:40:42;;;;;;;85.93;44.67;;;4.00;99.90;;;3.97;78.33;101026.09;4996071;28;20054;-71
2021/12/23 06:43:10;;;;;;;87.93;46.13;;;3.90;99.90;;;4.01;78.59;101014.84;4995986;28;20072;-72
2021/12/23 06:45:39;;;;;;;87.53;44.93;;;3.90;99.90;;;3.70;79.21;101007.09;4978380;28;20391;-72
2021/12/23 06:48:07;;;;;;;86.90;45.37;;;3.70;99.90;;;3.75;79.79;101005.50;4995931;28;20070;-71
2021/12/23 06:50:36;;;;;;;86.87;46.83;;;3.70;99.90;;;3.74;80.15;101014.16;4995889;28;20046;-71
2021/12/23 06:53:05;;;;;;;82.23;44.27;;;3.70;99.90;;;3.78;80.19;101013.41;4995591;28;20046;-72
2021/12/23 06:55:35;;;;;;;83.70;45.40;;;3.70;99.90;;;3.81;80.43;101015.22;4995757;28;20046;-72
2021/12/23 06:58:03;;;;;;;83.63;45.10;;;3.70;99.90;;;3.87;80.18;101011.00;4995877;28;20072;-72
2021/12/23 07:00:35;;;;;;;86.10;45.73;;;3.80;99.90;;;3.92;79.79;101017.25;4995575;28;20093;-74
2021/12/23 07:03:04;;;;;;;82.83;45.03;;;3.90;99.90;;;3.99;79.78;101016.53;4995558;28;20481;-73
2021/12/23 07:05:33;;;;;;;85.40;45.83;;;3.90;99.90;;;3.97;79.56;101012.13;4995487;28;20500;-71
2021/12/23 07:08:08;;;;;;;81.10;44.00;;;3.90;99.90;;;3.83;79.69;101014.41;4995043;28;20114;-71
2021/12/23 07:10:40;;;;;;;88.80;44.77;;;3.80;99.90;;;3.81;80.09;101018.72;4995094;28;20512;-71
2021/12/23 07:13:08;;;;;;;90.30;46.90;;;3.80;99.90;;;3.88;80.21;101019.75;4995163;28;20480;-71
2021/12/23 07:15:37;;;;;;;83.33;44.43;;;3.80;99.90;;;4.01;80.28;101019.19;4995158;28;20527;-70
2021/12/23 07:18:05;;;;;;;84.40;45.23;;;3.90;99.90;;;3.94;79.94;101023.41;4995263;28;20053;-70
2021/12/23 07:20:34;;;;;;;85.13;43.03;;;3.90;99.90;;;3.99;79.88;101034.84;4995029;28;20077;-71
2021/12/23 07:23:02;;;;;;;88.17;44.77;;;3.90;99.90;;;4.07;79.91;101029.81;4994979;28;20046;-71
2021/12/23 07:25:31;;;;;;;81.97;44.20;;;4.00;99.90;;;4.04;79.74;101032.34;4994991;28;20085;-71
2021/12/23 07:28:00;;;;;;;85.83;43.60;;;4.00;99.90;;;4.08;79.86;101024.63;4994928;28;20101;-71
2021/12/23 07:30:29;;;;;;;78.82;43.65;;;4.10;99.90;;;4.08;79.59;101029.88;4995062;28;20038;-71
2021/12/23 07:33:00;;;;;;;78.93;42.40;;;4.00;99.90;;;4.11;79.28;101032.53;4977601;28;20112;-72
2021/12/23 07:35:29;;;;;;;81.70;43.27;;;4.10;99.90;;;4.25;79.56;101015.44;4994902;28;20057;-69
2021/12/23 07:38:00;;;;;;;82.07;43.17;;;4.20;99.90;;;3.31;79.82;100901.53;4994982;28;20225;-71
2021/12/23 07:40:30;;;;;;;80.80;43.80;;;3.90;99.90;;;3.71;80.41;101007.97;4994994;28;20444;-71
2021/12/23 07:43:21;;;;;;;88.23;45.27;;;3.70;99.90;;;3.61;80.99;101017.31;4994793;28;20054;-70
2021/12/23 07:45:49;;;;;;;92.90;46.20;;;3.60;99.90;;;3.58;81.87;101015.50;4977459;28;20062;-70
2021/12/23 07:48:17;;;;;;;86.57;45.13;;;3.60;99.90;;;3.65;82.20;101013.94;4994581;28;20060;-72
2021/12/23 07:50:46;;;;;;;90.03;46.80;;;3.60;99.90;;;3.40;82.21;101001.97;4994522;28;20476;-69
2021/12/23 07:53:14;;;;;;;90.00;46.93;;;3.60;99.90;;;3.39;82.71;101004.53;4977337;28;20042;-68
2021/12/23 07:55:43;;;;;;;94.50;46.83;;;3.50;99.90;;;3.43;82.63;101011.59;4995205;28;20124;-69
2021/12/23 07:58:13;;;;;;;96.57;47.47;;;3.50;99.90;;;3.59;82.56;101000.72;4994670;28;20488;-69
2021/12/23 08:00:42;;;;;;;87.68;46.25;;;3.60;99.90;;;3.55;82.68;100996.25;4994861;28;20109;-68
2021/12/23 08:03:11;;;;;;;93.03;47.10;;;3.60;99.90;;;3.54;83.14;100999.72;4994351;28;20057;-68
2021/12/23 08:05:41;;;;;;;97.50;46.33;;;3.50;99.90;;;3.57;83.14;100995.44;4992999;28;20441;-70
2021/12/23 08:08:10;;;;;;;94.72;46.63;;;3.60;99.90;;;3.68;82.84;100996.59;4994387;28;20039;-71
2021/12/23 08:10:38;;;;;;;91.00;48.83;;;3.60;99.90;;;3.75;82.56;100987.19;4994200;28;20105;-69
2021/12/23 08:13:07;;;;;;;87.90;45.90;;;3.70;99.90;;;3.74;82.35;100990.63;4994531;28;20042;-67
2021/12/23 08:15:37;;;;;;;94.00;47.17;;;3.70;99.90;;;3.81;82.05;100986.44;4976835;28;20101;-67
2021/12/23 08:18:06;;;;;;;90.70;45.58;;;3.80;99.90;;;3.72;82.43;100978.38;4994082;28;20050;-69
2021/12/23 08:20:35;;;;;;;85.77;44.53;;;3.80;99.90;;;3.90;82.16;100982.31;4993229;28;20396;-69
2021/12/23 08:23:03;;;;;;;84.10;45.47;;;3.80;99.90;;;3.78;82.25;100983.72;4993970;28;20092;-68
2021/12/23 08:25:32;;;;;;;94.90;45.60;;;3.80;99.90;;;3.73;82.07;100973.19;4993980;28;20455;-70
2021/12/23 08:28:00;;;;;;;88.17;44.27;;;3.80;99.90;;;3.77;82.36;100972.41;4993784;28;20042;-69
2021/12/23 08:30:34;;;;;;;92.70;46.10;;;3.80;99.90;;;3.73;82.40;100960.09;4993625;28;20077;-70
2021/12/23 08:33:04;;;;;;;86.18;45.42;;;3.80;99.90;;;3.71;82.69;100956.56;4993753;28;20065;-70
2021/12/23 08:35:32;;;;;;;94.00;47.38;;;3.70;99.90;;;3.67;82.84;100941.66;4994014;28;20105;-70
2021/12/23 08:38:01;;;;;;;88.83;45.73;;;3.70;99.90;;;3.75;82.75;100953.19;4976255;28;20480;-70
2021/12/23 08:40:31;;;;;;;91.53;46.17;;;3.70;99.90;;;3.57;83.05;100942.25;4993427;28;20058;-69
2021/12/23 08:43:01;;;;;;;89.35;45.47;;;3.60;99.90;;;3.54;83.34;100916.91;4993683;28;20057;-68
2021/12/23 08:45:34;;;;;;;81.63;42.17;;;3.60;99.90;;;3.63;83.23;100937.19;4994088;28;20046;-69
2021/12/23 08:48:05;;;;;;;83.93;45.47;;;3.70;99.90;;;3.68;83.15;100925.97;4994040;28;20054;-71
2021/12/23 08:50:33;;;;;;;;;;;3.70;99.90;;;3.63;83.47;100925.00;4994016;28;20065;-70
2021/12/23 08:53:03;;;;;;;87.87;44.07;;;3.70;99.90;;;3.83;82.93;100920.25;4993736;28;19921;-71
2021/12/23 08:55:33;;;;;;;89.33;45.43;;;3.80;99.90;;;3.95;82.75;100915.28;4993265;28;20042;-70
2021/12/23 08:58:04;;;;;;;86.43;44.13;;;3.80;99.90;;;3.84;82.97;100908.91;4993519;28;20093;-68
2021/12/23 09:00:35;;;;;;;84.27;44.53;;;3.90;99.90;;;3.64;83.64;100908.44;4993329;28;20128;-67
2021/12/23 09:03:07;;;;;;;84.80;45.03;;;3.70;99.90;;;3.74;84.00;100903.41;4993362;28;20125;-67
2021/12/23 09:05:38;;;;;;;89.03;44.47;;;3.70;99.90;;;3.50;83.81;100867.16;4993100;28;20048;-67
2021/12/23 09:08:07;;;;;;;90.63;46.30;;;3.70;99.90;;;3.54;84.34;100896.00;4993274;28;20365;-67
2021/12/23 09:10:36;;;;;;;91.80;45.87;;;3.60;99.90;;;3.49;84.47;100899.34;4993348;28;20074;-67
2021/12/23 09:13:05;;;;;;;91.33;46.10;;;3.50;99.90;;;3.48;84.65;100900.22;4993886;28;20058;-66
2021/12/23 09:15:33;;;;;;;93.57;45.90;;;3.50;99.90;;;3.50;84.64;100893.28;4994103;28;20070;-67
2021/12/23 09:18:02;;;;;;;93.10;46.47;;;3.50;99.90;;;3.55;84.93;100889.03;4993971;28;20046;-69
2021/12/23 09:20:31;;;;;;;90.20;46.40;;;3.60;99.90;;;3.60;84.78;100885.69;4993941;28;20082;-70
2021/12/23 09:23:01;;;;;;;85.22;44.97;;;3.60;99.90;;;3.51;84.83;100861.06;4976840;28;20069;-69
2021/12/23 09:25:33;;;;;;;85.28;45.42;;;3.70;99.90;;;3.82;84.24;100871.38;4993987;28;20424;-67
2021/12/23 09:28:24;;;;;;;82.13;41.50;;;3.80;99.90;;;4.00;84.10;100884.00;4993990;28;20054;-67
2021/12/23 09:33:40;;;;;;;84.30;43.13;;;3.90;99.90;;;3.94;83.91;100884.75;4994144;28;20046;-66
2021/12/23 09:36:11;;;;;;;79.87;41.40;;;3.90;99.90;;;3.98;83.62;100867.38;4994392;28;20557;-66
2021/12/23 09:38:40;;;;;;;83.23;43.83;;;4.00;99.90;;;3.27;83.58;100732.44;4993721;28;20038;-67
2021/12/23 09:41:13;;;;;;;85.17;42.13;;;4.00;99.90;;;3.93;83.31;100848.94;4993956;28;20046;-66
2021/12/23 09:43:43;;;;;;;86.00;42.37;;;4.00;99.90;;;4.10;83.20;100872.88;4993806;28;20043;-67
2021/12/23 09:46:14;;;;;;;78.97;41.13;;;4.10;99.90;;;4.10;83.04;100879.00;4993983;28;20108;-69
2021/12/23 09:48:46;;;;;;;80.23;42.33;;;4.00;99.90;;;4.12;83.04;100874.66;4993699;28;20137;-67
2021/12/23 09:51:19;;;;;;;79.17;41.37;;;4.10;99.90;;;4.04;82.96;100871.00;4993869;28;20039;-66
2021/12/23 09:53:56;;;;;;;79.63;42.73;;;4.00;99.90;;;4.08;82.87;100865.00;4993699;28;20051;-67
2021/12/23 09:56:25;;;;;;;82.10;41.50;;;4.00;99.90;;;4.12;82.91;100865.94;4993907;28;20077;-66
2021/12/23 09:58:56;;;;;;;82.37;42.13;;;4.10;99.90;;;4.20;82.86;100875.69;4993549;28;20492;-66
2021/12/23 10:01:26;;;;;;;80.67;41.57;;;4.10;99.90;;;4.26;82.55;100870.59;4976410;28;20050;-66
2021/12/23 10:03:54;;;;;;;90.07;43.83;;;4.20;99.90;;;4.26;82.51;100860.13;4976108;28;20137;-68
2021/12/23 10:06:25;;;;;;;83.27;41.97;;;4.20;99.90;;;4.33;82.81;100862.03;4993524;28;20046;-69
2021/12/23 10:08:54;;;;;;;75.77;39.03;;;4.30;99.90;;;4.26;82.70;100869.72;4993797;28;20046;-70
2021/12/23 10:11:30;;;;;;;80.17;40.83;;;4.30;99.90;;;4.33;82.74;100851.56;4993364;28;20100;-67
2021/12/23 10:31:10;;;;;;;74.33;40.70;;;4.40;99.90;;;4.51;83.25;100819.59;4992222;28;20488;-67
2021/12/23 10:33:50;;;;;;;81.43;40.57;;;4.40;99.90;;;4.35;83.13;100801.84;4992084;28;20046;-67
2021/12/23 10:39:25;;;;;;;76.53;41.27;;;4.40;99.90;;;4.56;83.01;100818.84;4993165;28;20073;-69
2021/12/23 10:42:10;;;;;;;79.70;40.73;;;4.50;99.90;;;4.67;83.24;100832.13;4975911;28;20105;-68
2021/12/23 10:44:39;;;;;;;77.20;40.10;;;4.60;99.90;;;4.67;83.07;100826.00;4996761;28;20058;-70
2021/12/23 10:47:08;;;;;;;82.83;41.13;;;4.60;99.90;;;4.67;82.67;100837.38;4996968;28;20088;-70
2021/12/23 10:49:42;;;;;;;73.38;40.20;;;4.60;99.90;;;4.75;82.65;100846.25;4996669;28;20042;-67